Data for 06/09/2007

Time Sea-Level Adjusted Pressure Absolute Pressure Temperature Relative Humidity Dew Point   
(mb) (inHg) (mb) (inHg) (C) (F) (%) (C) (F)
00:05 1017 30.03 846 24.98 9.1 48.4 77 5.2 41.4
00:10 1017 30.03 846 24.98 8.9 48 77 5.1 41.2
00:15 1017 30.03 846 24.98 9.1 48.5 73 4.6 40.3
00:20 1017 30.03 846 24.98 9.6 49.4 74 5.2 41.3
00:25 1017 30.03 846 24.98 9.4 48.9 77 5.6 42.2
00:30 1017 30.03 846 24.98 9.1 48.3 78 5.5 42
00:35 1017 30.03 846 24.98 9.2 48.5 78 5.6 42.1
00:40 1017 30.03 846 24.98 9.1 48.4 79 5.7 42.2
00:45 1017 30.03 846 24.98 9.1 48.4 79 5.8 42.4
00:50 1017 30.03 846 24.98 9.2 48.5 78 5.6 42.1
00:55 1017 30.03 846 24.98 9.2 48.5 77 5.5 41.8
01:00 1017 30.03 846 24.98 9.2 48.6 76 5.3 41.5
01:05 1017 30.03 846 24.98 9.4 48.8 75 5.2 41.3
01:10 1017 30.03 846 24.98 9.4 48.9 76 5.3 41.6
01:15 1017 30.03 846 24.98 9.4 48.9 76 5.3 41.6
01:20 1017 30.03 846 24.98 9.4 49 76 5.4 41.7
01:25 1017 30.03 846 24.98 9.4 49 76 5.4 41.7
01:30 1017 30.03 846 24.98 9.5 49.1 76 5.5 41.8
01:35 1017 30.03 846 24.98 9.5 49.1 75 5.3 41.6
01:40 1017 30.03 846 24.98 9.5 49 75 5.3 41.5
01:45 1017 30.03 846 24.98 9.5 49.1 74 5.1 41.3
01:50 1017 30.03 846 24.98 9.6 49.2 74 5.2 41.4
01:55 1017 30.03 846 24.98 9.6 49.2 74 5.1 41.2
02:00 1017 30.03 846 24.98 9.6 49.2 73 5.1 41.2
02:05 1017 30.03 846 24.98 9.5 49.1 74 5 41.1
02:10 1017 30.03 846 24.98 9.3 48.8 76 5.3 41.5
02:15 1017 30.03 846 24.98 9.3 48.7 75 5.1 41.2
02:20 1017 30.03 846 24.98 9.2 48.5 76 5.1 41.2
02:25 1017 30.03 846 24.98 9 48.2 76 5.1 41.1
02:30 1017 30.03 846 24.98 9 48.2 76 5 41
02:35 1017 30.03 846 24.98 9 48.1 76 4.9 40.8
02:40 1017 30.03 847 25.01 9 48.3 75 4.8 40.7
02:45 1017 30.03 847 25.01 9.1 48.3 74 4.7 40.4
02:50 1017 30.03 847 25.01 9 48.3 74 4.7 40.4
02:55 1017 30.03 847 25.01 8.7 47.7 74 4.4 40
03:00 1017 30.03 847 25.01 8.5 47.3 74 4.1 39.4
03:05 1017 30.03 847 25.01 8.6 47.4 73 4 39.3
03:10 1017 30.03 847 25.01 8.9 48.1 68 3.4 38.2
03:15 1017 30.03 847 25.01 9.3 48.8 70 4.2 39.5
03:20 1017 30.03 847 25.01 9.1 48.3 70 4 39.2
03:25 1017 30.03 847 25.01 8.8 47.8 72 4 39.3
03:30 1017 30.03 847 25.01 8.2 46.8 75 4.1 39.4
03:35 1017 30.03 847 25.01 8.2 46.8 74 3.9 39.1
03:40 1018 30.06 847 25.01 8.2 46.7 74 3.8 38.9
03:45 1018 30.06 847 25.01 8.1 46.6 74 3.8 38.9
03:50 1018 30.06 847 25.01 8.1 46.5 75 3.9 39
03:55 1018 30.06 847 25.01 8.1 46.6 75 4 39.2
04:00 1018 30.06 847 25.01 8.1 46.5 75 3.9 39.1
04:05 1018 30.06 847 25.01 8 46.3 75 3.9 39
04:10 1018 30.06 847 25.01 8 46.3 75 3.9 39
04:15 1018 30.06 847 25.01 8 46.4 74 3.7 38.6
04:20 1018 30.06 847 25.01 8.2 46.7 73 3.7 38.6
04:25 1018 30.06 847 25.01 8.4 47.1 72 3.8 38.8
04:30 1018 30.06 847 25.01 8.4 47 73 3.9 39
04:35 1018 30.06 847 25.01 7.9 46.3 75 3.8 38.8
04:40 1018 30.06 847 25.01 7.7 45.8 76 3.7 38.6
04:45 1018 30.06 847 25.01 7.5 45.6 76 3.6 38.5
04:50 1018 30.06 847 25.01 7.6 45.7 74 3.3 38
04:55 1018 30.06 847 25.01 7.7 45.9 74 3.5 38.3
05:00 1018 30.06 847 25.01 7.7 45.9 75 3.6 38.4
05:05 1018 30.06 847 25.01 7.6 45.6 75 3.5 38.3
05:10 1018 30.06 847 25.01 7.5 45.5 76 3.5 38.3
05:15 1018 30.06 847 25.01 7.6 45.6 76 3.6 38.5
05:20 1018 30.06 847 25.01 7.4 45.2 76 3.4 38.2
05:25 1018 30.06 847 25.01 7.2 45 78 3.6 38.5
05:30 1018 30.06 847 25.01 7.1 44.7 78 3.6 38.4
05:35 1018 30.06 847 25.01 6.8 44.2 80 3.6 38.5
05:40 1018 30.06 847 25.01 6.6 44 80 3.5 38.3
05:45 1018 30.06 847 25.01 6.6 43.8 81 3.5 38.2
05:50 1018 30.06 847 25.01 6.6 43.9 80 3.4 38.1
05:55 1018 30.06 847 25.01 6.8 44.2 78 3.2 37.8
06:00 1018 30.06 847 25.01 7.3 45.1 74 3 37.3
06:05 1018 30.06 847 25.01 7.9 46.1 72 3.1 37.6
06:10 1018 30.06 847 25.01 8 46.3 73 3.4 38.1
06:15 1018 30.06 847 25.01 7.9 46.2 73 3.3 37.9
06:20 1018 30.06 847 25.01 7.9 46.2 74 3.5 38.4
06:25 1018 30.06 847 25.01 7.9 46.1 73 3.3 38
06:30 1018 30.06 847 25.01 8 46.4 73 3.4 38.2
06:35 1018 30.06 847 25.01 8.1 46.6 73 3.5 38.4
06:40 1018 30.06 847 25.01 8.1 46.5 73 3.5 38.2
06:45 1018 30.06 847 25.01 8.3 46.9 73 3.7 38.7
06:50 1018 30.06 847 25.01 8.5 47.3 72 3.8 38.8
06:55 1018 30.06 847 25.01 8.7 47.7 71 3.8 38.9
07:00 1018 30.06 847 25.01 9.1 48.4 70 4 39.2
07:05 1018 30.06 847 25.01 9.4 49 70 4.2 39.6
07:10 1018 30.06 847 25.01 9.6 49.3 68 4.1 39.4
07:15 1018 30.06 847 25.01 10 50.1 67 4.2 39.5
07:20 1018 30.06 847 25.01 10.2 50.4 66 4.3 39.7
07:25 1018 30.06 847 25.01 10.6 51 64 4.1 39.3
07:30 1018 30.06 847 25.01 10.9 51.6 64 4.3 39.7
07:35 1018 30.06 847 25.01 11.2 52.1 64 4.6 40.3
07:40 1018 30.06 847 25.01 10.9 51.7 65 4.6 40.2
07:45 1018 30.06 847 25.01 11.1 52 65 4.7 40.5
07:50 1018 30.06 847 25.01 11.4 52.5 64 4.8 40.6
07:55 1018 30.06 847 25.01 11.8 53.2 61 4.5 40.1
08:00 1018 30.06 847 25.01 11.9 53.4 62 4.8 40.6
08:05 1018 30.06 847 25.01 12.5 54.4 59 4.8 40.6
08:10 1018 30.06 848 25.04 12.8 55 59 5 41
08:15 1018 30.06 848 25.04 13.3 55.9 57 5 41.1
08:20 1018 30.06 848 25.04 13 55.4 59 5.2 41.4
08:25 1018 30.06 848 25.04 13.1 55.7 57 4.9 40.8
08:30 1018 30.06 848 25.04 13.6 56.4 57 5.2 41.4
08:35 1018 30.06 848 25.04 13.9 57 56 5.3 41.6
08:40 1018 30.06 848 25.04 14.1 57.3 56 5.4 41.8
08:45 1018 30.06 847 25.01 14.7 58.4 53 5.4 41.6
08:50 1018 30.06 847 25.01 15.4 59.8 49 4.8 40.6
08:55 1018 30.06 847 25.01 15.8 60.4 46 4.2 39.6
09:00 1018 30.06 847 25.01 16 60.8 46 4.4 40
09:05 1018 30.06 847 25.01 15.9 60.6 48 4.8 40.7
09:10 1018 30.06 847 25.01 15.8 60.4 47 4.6 40.3
09:15 1018 30.06 847 25.01 16 60.7 46 4.6 40.2
09:20 1018 30.06 847 25.01 16 60.8 45 4.1 39.5
09:25 1018 30.06 847 25.01 16.7 62 45 4.9 40.8
09:30 1018 30.06 847 25.01 16.7 62.1 44 4.4 39.9
09:35 1018 30.06 847 25.01 16.9 62.4 42 3.9 39
09:40 1018 30.06 847 25.01 17.1 62.7 44 5 40.9
09:45 1018 30.06 847 25.01 16.9 62.4 42 4.1 39.3
09:50 1018 30.06 847 25.01 17.7 63.9 41 4.3 39.8
09:55 1018 30.06 847 25.01 18.1 64.5 40 4.3 39.7
10:00 1018 30.06 847 25.01 18.1 64.5 40 4.5 40
10:05 1018 30.06 847 25.01 18.9 66 38 4.6 40.2
10:10 1018 30.06 847 25.01 19.8 67.7 37 4.7 40.4
10:15 1018 30.06 847 25.01 20.1 68.2 36 4.7 40.5
10:20 1018 30.06 847 25.01 20.1 68.3 36 4.9 40.9
10:25 1018 30.06 847 25.01 20.5 68.9 37 5.5 42
10:30 1018 30.06 847 25.01 20 68 40 6.1 43
10:35 1018 30.06 847 25.01 20 68.1 37 5 41.1
10:40 1018 30.06 847 25.01 19.3 66.8 38 4.8 40.6
10:45 1018 30.06 847 25.01 19.9 67.8 37 4.7 40.5
10:50 1018 30.06 847 25.01 20.3 68.5 34 4 39.2
10:55 1018 30.06 847 25.01 20 67.9 39 5.6 42.1
11:00 1018 30.06 847 25.01 20.4 68.7 38 5.8 42.4
11:05 1018 30.06 847 25.01 20 68 39 5.7 42.3
11:10 1018 30.06 847 25.01 20 67.9 38 5.3 41.5
11:15 1018 30.06 847 25.01 20.3 68.5 36 4.9 40.9
11:20 1018 30.06 847 25.01 20.7 69.2 37 5.6 42.1
11:25 1018 30.06 847 25.01 20.8 69.4 36 5.3 41.6
11:30 1018 30.06 847 25.01 20.9 69.7 33 4.3 39.8
11:35 1018 30.06 847 25.01 20.1 68.3 33 3.4 38.2
11:40 1018 30.06 847 25.01 19.9 67.9 31 2.3 36.2
11:45 1018 30.06 847 25.01 20.4 68.8 31 3.1 37.5
11:50 1018 30.06 847 25.01 21.1 70 30 3.1 37.5
11:55 1018 30.06 847 25.01 20.8 69.4 30 2.9 37.2
12:00 1018 30.06 847 25.01 20.6 69 32 3.5 38.4
12:05 1018 30.06 847 25.01 21.2 70.2 29 2.5 36.5
12:10 1018 30.06 847 25.01 20.7 69.2 30 2.6 36.7
12:15 1018 30.06 847 25.01 20.8 69.5 31 3.1 37.6
12:20 1018 30.06 847 25.01 21.3 70.3 30 3 37.3
12:25 1018 30.06 847 25.01 20.9 69.6 31 3.1 37.6
12:30 1018 30.06 847 25.01 20.7 69.2 31 3.3 37.9
12:35 1017 30.03 847 25.01 21.2 70.1 30 3.2 37.8
12:40 1017 30.03 847 25.01 21.2 70.2 29 2.5 36.6
12:45 1017 30.03 847 25.01 21.4 70.6 30 3.4 38.1
12:50 1017 30.03 847 25.01 22 71.6 28 3.1 37.5
12:55 1017 30.03 846 24.98 21.4 70.6 31 3.7 38.7
13:00 1017 30.03 847 25.01 21.6 71 31 3.9 39
13:05 1017 30.03 847 25.01 22 71.5 28 2.7 36.8
13:10 1017 30.03 846 24.98 22.3 72.2 27 2.9 37.1
13:15 1017 30.03 846 24.98 22.3 72.2 28 3.1 37.6
13:20 1017 30.03 846 24.98 22.1 71.8 28 3.2 37.8
13:25 1017 30.03 846 24.98 22.3 72.2 28 3.3 37.9
13:30 1017 30.03 846 24.98 22.6 72.6 29 3.9 38.9
13:35 1017 30.03 846 24.98 22.8 73.1 26 2.4 36.4
13:40 1017 30.03 846 24.98 22.7 72.8 26 2.5 36.4
13:45 1017 30.03 846 24.98 22.4 72.3 28 3.2 37.7
13:50 1017 30.03 846 24.98 22.8 73 28 3.4 38.1
13:55 1017 30.03 846 24.98 23.6 74.4 29 4.5 40.2
14:00 1017 30.03 846 24.98 23.3 74 28 4.1 39.4
14:05 1017 30.03 846 24.98 23.1 73.7 28 3.8 38.8
14:10 1017 30.03 846 24.98 22.6 72.7 28 3.4 38.1
14:15 1017 30.03 846 24.98 23 73.3 28 3.9 39
14:20 1017 30.03 846 24.98 23.4 74.1 26 3.1 37.5
14:25 1017 30.03 846 24.98 23.5 74.2 26 3.1 37.6
14:30 1017 30.03 846 24.98 23.2 73.7 28 3.7 38.6
14:35 1017 30.03 846 24.98 23.1 73.7 27 3.1 37.6
14:40 1016 30 846 24.98 23.4 74.1 26 3.3 37.9
14:45 1016 30 846 24.98 23.3 74 27 3.7 38.7
14:50 1016 30 846 24.98 22.9 73.1 28 3.4 38.1
14:55 1016 30 846 24.98 22.9 73.2 28 3.5 38.3
15:00 1016 30 846 24.98 22.4 72.3 28 3.3 38
15:05 1016 30 846 24.98 21.9 71.5 28 2.6 36.7
15:10 1016 30 846 24.98 22.8 73 28 3.5 38.3
15:15 1016 30 845 24.95 23.6 74.5 26 3.4 38.2
15:20 1016 30 845 24.95 23.6 74.4 27 3.9 39.1
15:25 1016 30 845 24.95 22.6 72.6 28 3.4 38.1
15:30 1016 30 845 24.95 23 73.4 27 3.2 37.8
15:35 1016 30 845 24.95 22.9 73.2 28 3.4 38.1
15:40 1016 30 845 24.95 23.2 73.8 27 3.3 38
15:45 1016 30 845 24.95 23.6 74.4 27 3.6 38.5
15:50 1016 30 845 24.95 23.5 74.3 26 2.9 37.2
15:55 1016 30 845 24.95 22.7 72.8 27 2.8 37
16:00 1016 30 845 24.95 23.3 74 25 2.3 36.1
16:05 1016 30 845 24.95 23.5 74.4 25 2.8 37
16:10 1016 30 845 24.95 23 73.4 25 2 35.5
16:15 1016 30 845 24.95 22.6 72.7 23 0.7 33.3
16:20 1016 30 845 24.95 22.6 72.7 25 2 35.6
16:25 1016 30 845 24.95 22.8 73 25 2.1 35.8
16:30 1016 30 845 24.95 22.4 72.4 30 4.3 39.8
16:35 1016 30 845 24.95 22.1 71.8 27 2.6 36.6
16:40 1016 30 845 24.95 22.1 71.7 28 2.8 37
16:45 1016 30 845 24.95 22.3 72.1 26 2 35.7
16:50 1016 30 845 24.95 22.4 72.3 28 3.2 37.7
16:55 1016 30 845 24.95 22.5 72.5 30 4.2 39.6
17:00 1016 30 845 24.95 22.5 72.5 28 3.3 38
17:05 1016 30 845 24.95 23.1 73.6 28 4 39.1
17:10 1016 30 845 24.95 23.8 74.8 28 4.3 39.8
17:15 1016 30 845 24.95 23.1 73.5 27 3.3 38
17:20 1016 30 845 24.95 22.3 72.1 28 3 37.3
17:25 1016 30 845 24.95 21.9 71.4 29 3.4 38.1
17:30 1016 30 845 24.95 21.7 71.1 31 4.2 39.6
17:35 1016 30 845 24.95 21.8 71.2 32 4.7 40.5
17:40 1015 29.97 845 24.95 21.7 71.1 33 4.7 40.5
17:45 1015 29.97 845 24.95 21.9 71.5 32 4.7 40.4
17:50 1015 29.97 844 24.92 21.8 71.3 30 3.8 38.9
17:55 1015 29.97 844 24.92 22 71.5 29 3.5 38.4
18:00 1015 29.97 844 24.92 21.7 71 31 3.9 39
18:05 1015 29.97 844 24.92 21.4 70.6 32 4.3 39.8
18:10 1015 29.97 844 24.92 21.3 70.3 32 4 39.2
18:15 1015 29.97 844 24.92 21 69.8 33 4.2 39.6
18:20 1015 29.97 844 24.92 21.2 70.1 32 3.9 39
18:25 1015 29.97 844 24.92 21.1 70 32 3.9 39
18:30 1015 29.97 844 24.92 21.2 70.2 32 4.1 39.4
18:35 1015 29.97 844 24.92 21.3 70.4 32 4 39.3
18:40 1015 29.97 844 24.92 21.6 70.8 33 4.9 40.9
18:45 1015 29.97 844 24.92 21.9 71.4 32 4.6 40.3
18:50 1015 29.97 844 24.92 22 71.5 30 3.8 38.8
18:55 1015 29.97 844 24.92 21.9 71.4 32 4.5 40
19:00 1015 29.97 844 24.92 22 71.6 31 4.2 39.6
19:05 1015 29.97 844 24.92 21.6 70.9 32 4.5 40.1
19:10 1015 29.97 844 24.92 21.8 71.3 32 4.7 40.5
19:15 1015 29.97 844 24.92 21.7 71.1 31 4.1 39.5
19:20 1015 29.97 844 24.92 21.5 70.8 30 3.5 38.3
19:25 1015 29.97 844 24.92 21.6 70.8 30 3.2 37.8
19:30 1015 29.97 844 24.92 21.4 70.5 30 3.4 38.1
19:35 1015 29.97 844 24.92 21.3 70.3 31 3.5 38.3
19:40 1015 29.97 844 24.92 21.2 70.1 32 3.8 38.8
19:45 1015 29.97 844 24.92 21.1 70 31 3.7 38.6
19:50 1015 29.97 844 24.92 21 69.7 32 3.9 38.9
19:55 1015 29.97 844 24.92 20.8 69.5 32 3.9 39
20:00 1015 29.97 844 24.92 20.7 69.2 32 3.5 38.2
20:05 1015 29.97 844 24.92 20.4 68.8 33 3.8 38.9
20:10 1015 29.97 844 24.92 20.3 68.5 36 5.1 41.2
20:15 1015 29.97 844 24.92 19.9 67.8 40 6.1 42.9
20:20 1015 29.97 844 24.92 19.7 67.4 39 5.4 41.7
20:25 1015 29.97 844 24.92 19.8 67.6 39 5.6 42
20:30 1015 29.97 844 24.92 19.6 67.3 42 6.4 43.5
20:35 1015 29.97 844 24.92 19.3 66.8 41 5.7 42.3
20:40 1015 29.97 844 24.92 19.4 66.9 44 7.1 44.8
20:45 1015 29.97 844 24.92 19.4 66.9 48 8.2 46.8
20:50 1015 29.97 844 24.92 19.1 66.4 42 5.9 42.7
20:55 1015 29.97 844 24.92 18.9 66 46 7.2 44.9
21:00 1015 29.97 844 24.92 18.7 65.7 50 8.2 46.8
21:05 1015 29.97 844 24.92 18.3 64.9 44 6 42.8
21:10 1015 29.97 844 24.92 18 64.3 47 6.7 44.1
21:15 1015 29.97 844 24.92 17.8 64.1 44 5.7 42.2
21:20 1015 29.97 844 24.92 17.5 63.6 48 6.6 43.9
21:25 1015 29.97 844 24.92 17.5 63.6 43 5 41
21:30 1015 29.97 844 24.92 17.3 63.1 45 5.2 41.4
21:35 1015 29.97 844 24.92 17.3 63.2 43 4.8 40.6
21:40 1015 29.97 844 24.92 17.2 63 43 4.7 40.4
21:45 1015 29.97 844 24.92 17.2 63 46 5.5 41.9
21:50 1015 29.97 844 24.92 17.3 63.2 41 4.2 39.5
21:55 1015 29.97 844 24.92 17.1 62.9 45 5.2 41.3
22:00 1015 29.97 844 24.92 17.4 63.4 40 3.9 38.9
22:05 1015 29.97 844 24.92 17.4 63.3 43 4.9 40.8
22:10 1015 29.97 844 24.92 17.4 63.2 41 4.2 39.6
22:15 1015 29.97 844 24.92 17.2 62.9 40 3.6 38.4
22:20 1015 29.97 844 24.92 17 62.5 42 3.9 39.1
22:25 1015 29.97 844 24.92 16.8 62.2 40 3.1 37.7
22:30 1015 29.97 844 24.92 16.9 62.3 39 2.9 37.2
22:35 1015 29.97 844 24.92 16.9 62.3 39 2.8 37.1
22:40 1015 29.97 844 24.92 16.8 62.2 39 2.8 37
22:45 1015 29.97 844 24.92 16.9 62.3 39 3.1 37.6
22:50 1015 29.97 844 24.92 16.9 62.5 40 3.5 38.3
22:55 1015 29.97 844 24.92 16.9 62.4 41 3.7 38.6
23:00 1015 29.97 844 24.92 16.8 62.2 39 2.8 37
23:05 1014 29.94 844 24.92 17 62.7 38 2.9 37.2
23:10 1014 29.94 844 24.92 17.2 63 38 2.9 37.2
23:15 1014 29.94 843 24.89 17.3 63.2 35 1.7 35
23:20 1014 29.94 843 24.89 17.5 63.5 36 2.3 36.1
23:25 1014 29.94 843 24.89 17.9 64.1 33 1.4 34.6
23:30 1014 29.94 843 24.89 18.3 64.9 33 1.7 35
23:35 1014 29.94 843 24.89 18.4 65.2 31 1.2 34.1
23:40 1014 29.94 843 24.89 18.7 65.6 32 1.7 35.1
23:45 1014 29.94 843 24.89 18.7 65.6 31 1.3 34.4
23:50 1014 29.94 843 24.89 18.7 65.6 31 1.5 34.7
23:55 1014 29.94 843 24.89 18.6 65.6 31 1.3 34.3
24:00 1014 29.94 843 24.89 18.7 65.6 31 1.5 34.6